sensor_id;sensor_type;location;lat;lon;timestamp;P1;durP1;ratioP1;P2;durP2;ratioP2
7903;SDS011;3997;48.416;8.512;2023-05-23T00:00:09;12.70;;;11.60;;
7903;SDS011;3997;48.416;8.512;2023-05-23T00:02:39;13.15;;;11.95;;
7903;SDS011;3997;48.416;8.512;2023-05-23T00:05:06;16.73;;;11.88;;
7903;SDS011;3997;48.416;8.512;2023-05-23T00:07:33;13.38;;;11.75;;
7903;SDS011;3997;48.416;8.512;2023-05-23T00:10:00;13.20;;;12.00;;
7903;SDS011;3997;48.416;8.512;2023-05-23T00:12:27;13.32;;;12.02;;
7903;SDS011;3997;48.416;8.512;2023-05-23T00:14:54;13.20;;;11.93;;
7903;SDS011;3997;48.416;8.512;2023-05-23T00:17:21;14.38;;;11.90;;
7903;SDS011;3997;48.416;8.512;2023-05-23T00:19:50;12.77;;;11.65;;
7903;SDS011;3997;48.416;8.512;2023-05-23T00:22:17;13.07;;;11.88;;
7903;SDS011;3997;48.416;8.512;2023-05-23T00:24:44;13.02;;;11.77;;
7903;SDS011;3997;48.416;8.512;2023-05-23T00:27:10;13.23;;;11.88;;
7903;SDS011;3997;48.416;8.512;2023-05-23T00:29:37;14.55;;;12.82;;
7903;SDS011;3997;48.416;8.512;2023-05-23T00:32:04;15.98;;;14.40;;
7903;SDS011;3997;48.416;8.512;2023-05-23T00:34:31;16.33;;;13.45;;
7903;SDS011;3997;48.416;8.512;2023-05-23T00:36:59;14.32;;;12.93;;
7903;SDS011;3997;48.416;8.512;2023-05-23T00:39:26;16.77;;;13.27;;
7903;SDS011;3997;48.416;8.512;2023-05-23T00:41:53;14.43;;;13.07;;
7903;SDS011;3997;48.416;8.512;2023-05-23T00:44:20;14.70;;;12.68;;
7903;SDS011;3997;48.416;8.512;2023-05-23T00:46:48;14.40;;;13.05;;
7903;SDS011;3997;48.416;8.512;2023-05-23T00:49:17;14.90;;;13.10;;
7903;SDS011;3997;48.416;8.512;2023-05-23T00:51:45;13.13;;;11.82;;
7903;SDS011;3997;48.416;8.512;2023-05-23T00:54:15;11.77;;;10.65;;
7903;SDS011;3997;48.416;8.512;2023-05-23T00:56:43;12.05;;;11.05;;
7903;SDS011;3997;48.416;8.512;2023-05-23T00:59:10;12.48;;;11.18;;
7903;SDS011;3997;48.416;8.512;2023-05-23T01:01:38;13.10;;;11.32;;
7903;SDS011;3997;48.416;8.512;2023-05-23T01:04:05;12.65;;;11.43;;
7903;SDS011;3997;48.416;8.512;2023-05-23T01:06:33;13.68;;;12.35;;
7903;SDS011;3997;48.416;8.512;2023-05-23T01:09:01;13.10;;;11.40;;
7903;SDS011;3997;48.416;8.512;2023-05-23T01:11:32;11.80;;;10.63;;
7903;SDS011;3997;48.416;8.512;2023-05-23T01:14:05;12.93;;;11.63;;
7903;SDS011;3997;48.416;8.512;2023-05-23T01:16:38;13.30;;;11.93;;
7903;SDS011;3997;48.416;8.512;2023-05-23T01:19:16;12.30;;;11.00;;
7903;SDS011;3997;48.416;8.512;2023-05-23T01:22:10;13.10;;;11.68;;
7903;SDS011;3997;48.416;8.512;2023-05-23T01:24:47;12.52;;;11.32;;
7903;SDS011;3997;48.416;8.512;2023-05-23T01:30:07;13.32;;;12.02;;
7903;SDS011;3997;48.416;8.512;2023-05-23T01:32:38;12.75;;;11.55;;
7903;SDS011;3997;48.416;8.512;2023-05-23T01:35:05;13.00;;;11.70;;
7903;SDS011;3997;48.416;8.512;2023-05-23T01:37:33;12.20;;;11.13;;
7903;SDS011;3997;48.416;8.512;2023-05-23T01:40:00;11.57;;;10.43;;
7903;SDS011;3997;48.416;8.512;2023-05-23T01:42:26;12.57;;;11.38;;
7903;SDS011;3997;48.416;8.512;2023-05-23T01:44:55;11.85;;;10.68;;
7903;SDS011;3997;48.416;8.512;2023-05-23T01:47:23;12.07;;;10.98;;
7903;SDS011;3997;48.416;8.512;2023-05-23T01:49:50;12.40;;;11.27;;
7903;SDS011;3997;48.416;8.512;2023-05-23T01:52:19;12.60;;;11.27;;
7903;SDS011;3997;48.416;8.512;2023-05-23T01:54:47;13.50;;;11.65;;
7903;SDS011;3997;48.416;8.512;2023-05-23T01:57:16;12.50;;;11.30;;
7903;SDS011;3997;48.416;8.512;2023-05-23T01:59:44;13.38;;;12.00;;
7903;SDS011;3997;48.416;8.512;2023-05-23T02:02:12;15.43;;;12.95;;
7903;SDS011;3997;48.416;8.512;2023-05-23T02:04:39;14.30;;;12.90;;
7903;SDS011;3997;48.416;8.512;2023-05-23T02:07:06;15.80;;;14.02;;
7903;SDS011;3997;48.416;8.512;2023-05-23T02:09:32;14.00;;;12.70;;
7903;SDS011;3997;48.416;8.512;2023-05-23T02:11:59;13.68;;;12.38;;
7903;SDS011;3997;48.416;8.512;2023-05-23T02:14:26;13.68;;;11.52;;
7903;SDS011;3997;48.416;8.512;2023-05-23T02:16:53;14.05;;;12.68;;
7903;SDS011;3997;48.416;8.512;2023-05-23T02:19:21;12.48;;;11.27;;
7903;SDS011;3997;48.416;8.512;2023-05-23T02:21:48;13.02;;;11.35;;
7903;SDS011;3997;48.416;8.512;2023-05-23T02:24:14;14.20;;;12.80;;
7903;SDS011;3997;48.416;8.512;2023-05-23T02:26:41;15.50;;;13.80;;
7903;SDS011;3997;48.416;8.512;2023-05-23T02:29:08;16.33;;;14.60;;
7903;SDS011;3997;48.416;8.512;2023-05-23T02:31:35;18.52;;;16.52;;
7903;SDS011;3997;48.416;8.512;2023-05-23T02:34:02;18.92;;;15.73;;
7903;SDS011;3997;48.416;8.512;2023-05-23T02:36:30;16.92;;;15.23;;
7903;SDS011;3997;48.416;8.512;2023-05-23T02:38:57;15.13;;;13.63;;
7903;SDS011;3997;48.416;8.512;2023-05-23T02:41:24;16.42;;;14.70;;
7903;SDS011;3997;48.416;8.512;2023-05-23T02:43:51;16.63;;;14.75;;
7903;SDS011;3997;48.416;8.512;2023-05-23T02:46:17;14.68;;;13.25;;
7903;SDS011;3997;48.416;8.512;2023-05-23T02:48:44;14.85;;;13.35;;
7903;SDS011;3997;48.416;8.512;2023-05-23T02:51:11;13.50;;;12.13;;
7903;SDS011;3997;48.416;8.512;2023-05-23T02:53:40;14.02;;;12.55;;
7903;SDS011;3997;48.416;8.512;2023-05-23T02:56:07;14.60;;;13.10;;
7903;SDS011;3997;48.416;8.512;2023-05-23T02:58:34;15.70;;;13.98;;
7903;SDS011;3997;48.416;8.512;2023-05-23T03:01:01;14.95;;;13.55;;
7903;SDS011;3997;48.416;8.512;2023-05-23T03:03:27;16.48;;;14.52;;
7903;SDS011;3997;48.416;8.512;2023-05-23T03:05:55;15.63;;;14.02;;
7903;SDS011;3997;48.416;8.512;2023-05-23T03:08:22;16.25;;;13.48;;
7903;SDS011;3997;48.416;8.512;2023-05-23T03:10:50;15.80;;;12.70;;
7903;SDS011;3997;48.416;8.512;2023-05-23T03:13:17;15.57;;;13.32;;
7903;SDS011;3997;48.416;8.512;2023-05-23T03:15:44;14.35;;;12.90;;
7903;SDS011;3997;48.416;8.512;2023-05-23T03:18:11;14.98;;;13.50;;
7903;SDS011;3997;48.416;8.512;2023-05-23T03:20:37;15.00;;;13.57;;
7903;SDS011;3997;48.416;8.512;2023-05-23T03:23:04;14.98;;;13.48;;
7903;SDS011;3997;48.416;8.512;2023-05-23T03:25:31;17.65;;;14.00;;
7903;SDS011;3997;48.416;8.512;2023-05-23T03:27:59;17.67;;;15.73;;
7903;SDS011;3997;48.416;8.512;2023-05-23T03:30:26;21.00;;;16.50;;
7903;SDS011;3997;48.416;8.512;2023-05-23T03:32:52;22.20;;;17.83;;
7903;SDS011;3997;48.416;8.512;2023-05-23T03:35:19;20.15;;;16.98;;
7903;SDS011;3997;48.416;8.512;2023-05-23T03:37:46;17.73;;;15.88;;
7903;SDS011;3997;48.416;8.512;2023-05-23T03:40:13;20.45;;;17.10;;
7903;SDS011;3997;48.416;8.512;2023-05-23T03:42:39;17.90;;;16.00;;
7903;SDS011;3997;48.416;8.512;2023-05-23T03:45:07;18.20;;;14.20;;
7903;SDS011;3997;48.416;8.512;2023-05-23T03:47:34;15.70;;;14.00;;
7903;SDS011;3997;48.416;8.512;2023-05-23T03:50:01;16.73;;;13.60;;
7903;SDS011;3997;48.416;8.512;2023-05-23T03:52:28;15.57;;;13.98;;
7903;SDS011;3997;48.416;8.512;2023-05-23T03:54:54;15.32;;;13.73;;
7903;SDS011;3997;48.416;8.512;2023-05-23T03:57:21;14.85;;;13.35;;
7903;SDS011;3997;48.416;8.512;2023-05-23T03:59:48;16.40;;;14.70;;
7903;SDS011;3997;48.416;8.512;2023-05-23T04:02:16;16.40;;;14.55;;
7903;SDS011;3997;48.416;8.512;2023-05-23T04:04:42;17.73;;;14.25;;
7903;SDS011;3997;48.416;8.512;2023-05-23T04:07:09;14.52;;;13.02;;
7903;SDS011;3997;48.416;8.512;2023-05-23T04:09:36;13.18;;;11.88;;
7903;SDS011;3997;48.416;8.512;2023-05-23T04:12:02;13.90;;;12.10;;
7903;SDS011;3997;48.416;8.512;2023-05-23T04:14:30;13.40;;;11.82;;
7903;SDS011;3997;48.416;8.512;2023-05-23T04:16:57;12.57;;;11.38;;
7903;SDS011;3997;48.416;8.512;2023-05-23T04:19:26;14.60;;;12.85;;
7903;SDS011;3997;48.416;8.512;2023-05-23T04:21:53;15.32;;;13.73;;
7903;SDS011;3997;48.416;8.512;2023-05-23T04:24:19;15.80;;;12.27;;
7903;SDS011;3997;48.416;8.512;2023-05-23T04:26:46;14.77;;;12.80;;
7903;SDS011;3997;48.416;8.512;2023-05-23T04:29:13;13.18;;;11.80;;
7903;SDS011;3997;48.416;8.512;2023-05-23T04:31:40;14.13;;;12.38;;
7903;SDS011;3997;48.416;8.512;2023-05-23T04:34:09;18.85;;;14.10;;
7903;SDS011;3997;48.416;8.512;2023-05-23T04:36:37;17.65;;;15.63;;
7903;SDS011;3997;48.416;8.512;2023-05-23T04:39:04;15.98;;;14.43;;
7903;SDS011;3997;48.416;8.512;2023-05-23T04:41:31;17.17;;;15.50;;
7903;SDS011;3997;48.416;8.512;2023-05-23T04:43:57;17.45;;;15.65;;
7903;SDS011;3997;48.416;8.512;2023-05-23T04:46:24;17.08;;;15.32;;
7903;SDS011;3997;48.416;8.512;2023-05-23T04:48:51;17.05;;;15.32;;
7903;SDS011;3997;48.416;8.512;2023-05-23T04:51:18;17.88;;;16.08;;
7903;SDS011;3997;48.416;8.512;2023-05-23T04:53:47;17.52;;;15.10;;
7903;SDS011;3997;48.416;8.512;2023-05-23T04:56:14;18.13;;;15.00;;
7903;SDS011;3997;48.416;8.512;2023-05-23T04:58:44;22.25;;;16.92;;
7903;SDS011;3997;48.416;8.512;2023-05-23T05:01:12;18.20;;;16.27;;
7903;SDS011;3997;48.416;8.512;2023-05-23T05:03:39;17.35;;;15.45;;
7903;SDS011;3997;48.416;8.512;2023-05-23T05:06:06;20.15;;;17.10;;
7903;SDS011;3997;48.416;8.512;2023-05-23T05:08:33;12.52;;;11.23;;
7903;SDS011;3997;48.416;8.512;2023-05-23T05:11:01;12.95;;;11.65;;
7903;SDS011;3997;48.416;8.512;2023-05-23T05:13:28;12.75;;;11.55;;
7903;SDS011;3997;48.416;8.512;2023-05-23T05:15:56;14.57;;;12.10;;
7903;SDS011;3997;48.416;8.512;2023-05-23T05:18:24;13.52;;;12.23;;
7903;SDS011;3997;48.416;8.512;2023-05-23T05:20:51;12.63;;;11.43;;
7903;SDS011;3997;48.416;8.512;2023-05-23T05:23:18;14.00;;;12.60;;
7903;SDS011;3997;48.416;8.512;2023-05-23T05:25:45;14.05;;;12.57;;
7903;SDS011;3997;48.416;8.512;2023-05-23T05:28:13;17.02;;;15.18;;
7903;SDS011;3997;48.416;8.512;2023-05-23T05:30:39;16.52;;;14.82;;
7903;SDS011;3997;48.416;8.512;2023-05-23T05:33:06;17.35;;;15.40;;
7903;SDS011;3997;48.416;8.512;2023-05-23T05:35:34;17.48;;;15.40;;
7903;SDS011;3997;48.416;8.512;2023-05-23T05:38:02;18.60;;;14.98;;
7903;SDS011;3997;48.416;8.512;2023-05-23T05:40:29;16.30;;;14.60;;
7903;SDS011;3997;48.416;8.512;2023-05-23T05:42:55;17.17;;;14.60;;
7903;SDS011;3997;48.416;8.512;2023-05-23T05:45:24;19.75;;;16.00;;
7903;SDS011;3997;48.416;8.512;2023-05-23T05:47:50;17.85;;;15.95;;
7903;SDS011;3997;48.416;8.512;2023-05-23T05:50:17;20.90;;;18.20;;
7903;SDS011;3997;48.416;8.512;2023-05-23T05:52:44;22.17;;;18.90;;
7903;SDS011;3997;48.416;8.512;2023-05-23T05:55:11;18.75;;;16.23;;
7903;SDS011;3997;48.416;8.512;2023-05-23T05:57:38;19.75;;;16.08;;
7903;SDS011;3997;48.416;8.512;2023-05-23T06:00:06;26.92;;;18.38;;
7903;SDS011;3997;48.416;8.512;2023-05-23T06:02:38;19.27;;;15.75;;
7903;SDS011;3997;48.416;8.512;2023-05-23T06:05:06;16.50;;;14.80;;
7903;SDS011;3997;48.416;8.512;2023-05-23T06:07:36;16.83;;;14.63;;
7903;SDS011;3997;48.416;8.512;2023-05-23T06:10:03;19.83;;;16.08;;
7903;SDS011;3997;48.416;8.512;2023-05-23T06:12:30;22.42;;;18.67;;
7903;SDS011;3997;48.416;8.512;2023-05-23T06:14:57;26.50;;;23.38;;
7903;SDS011;3997;48.416;8.512;2023-05-23T06:17:24;21.58;;;18.20;;
7903;SDS011;3997;48.416;8.512;2023-05-23T06:19:52;35.13;;;27.83;;
7903;SDS011;3997;48.416;8.512;2023-05-23T06:22:19;34.55;;;27.73;;
7903;SDS011;3997;48.416;8.512;2023-05-23T06:24:46;34.15;;;29.08;;
7903;SDS011;3997;48.416;8.512;2023-05-23T06:27:12;30.13;;;26.33;;
7903;SDS011;3997;48.416;8.512;2023-05-23T06:29:39;29.83;;;24.67;;
7903;SDS011;3997;48.416;8.512;2023-05-23T06:32:06;31.10;;;25.10;;
7903;SDS011;3997;48.416;8.512;2023-05-23T06:34:33;34.28;;;26.52;;
7903;SDS011;3997;48.416;8.512;2023-05-23T06:37:01;31.05;;;26.27;;
7903;SDS011;3997;48.416;8.512;2023-05-23T06:39:28;37.58;;;28.60;;
7903;SDS011;3997;48.416;8.512;2023-05-23T06:41:55;36.33;;;28.85;;
7903;SDS011;3997;48.416;8.512;2023-05-23T06:44:22;31.90;;;26.30;;
7903;SDS011;3997;48.416;8.512;2023-05-23T06:46:48;29.17;;;25.48;;
7903;SDS011;3997;48.416;8.512;2023-05-23T06:49:15;24.88;;;22.23;;
7903;SDS011;3997;48.416;8.512;2023-05-23T06:51:42;28.92;;;24.92;;
7903;SDS011;3997;48.416;8.512;2023-05-23T06:54:10;28.80;;;25.63;;
7903;SDS011;3997;48.416;8.512;2023-05-23T06:56:37;33.10;;;27.30;;
7903;SDS011;3997;48.416;8.512;2023-05-23T06:59:04;31.00;;;27.65;;
7903;SDS011;3997;48.416;8.512;2023-05-23T07:01:31;33.50;;;29.67;;
7903;SDS011;3997;48.416;8.512;2023-05-23T07:03:57;33.38;;;29.27;;
7903;SDS011;3997;48.416;8.512;2023-05-23T07:06:25;34.70;;;30.67;;
7903;SDS011;3997;48.416;8.512;2023-05-23T07:08:52;31.15;;;27.42;;
7903;SDS011;3997;48.416;8.512;2023-05-23T07:11:21;32.78;;;29.15;;
7903;SDS011;3997;48.416;8.512;2023-05-23T07:13:48;31.25;;;27.75;;
7903;SDS011;3997;48.416;8.512;2023-05-23T07:16:14;31.02;;;27.02;;
7903;SDS011;3997;48.416;8.512;2023-05-23T07:18:41;34.03;;;28.83;;
7903;SDS011;3997;48.416;8.512;2023-05-23T07:21:09;34.38;;;30.63;;
7903;SDS011;3997;48.416;8.512;2023-05-23T07:23:36;35.40;;;29.67;;
7903;SDS011;3997;48.416;8.512;2023-05-23T07:26:03;35.60;;;30.83;;
7903;SDS011;3997;48.416;8.512;2023-05-23T07:28:31;34.15;;;30.55;;
7903;SDS011;3997;48.416;8.512;2023-05-23T07:30:58;36.30;;;30.60;;
7903;SDS011;3997;48.416;8.512;2023-05-23T07:33:25;34.50;;;30.63;;
7903;SDS011;3997;48.416;8.512;2023-05-23T07:35:52;32.10;;;28.70;;
7903;SDS011;3997;48.416;8.512;2023-05-23T07:38:18;31.80;;;28.35;;
7903;SDS011;3997;48.416;8.512;2023-05-23T07:40:45;34.20;;;27.52;;
7903;SDS011;3997;48.416;8.512;2023-05-23T07:43:12;31.30;;;27.83;;
7903;SDS011;3997;48.416;8.512;2023-05-23T07:45:40;32.65;;;29.23;;
7903;SDS011;3997;48.416;8.512;2023-05-23T07:48:07;30.13;;;26.25;;
7903;SDS011;3997;48.416;8.512;2023-05-23T07:50:34;31.67;;;27.73;;
7903;SDS011;3997;48.416;8.512;2023-05-23T07:53:00;32.75;;;29.38;;
7903;SDS011;3997;48.416;8.512;2023-05-23T07:55:27;36.38;;;32.05;;
7903;SDS011;3997;48.416;8.512;2023-05-23T07:57:54;35.08;;;30.65;;
7903;SDS011;3997;48.416;8.512;2023-05-23T08:00:20;35.05;;;31.27;;
7903;SDS011;3997;48.416;8.512;2023-05-23T08:02:49;35.03;;;31.17;;
7903;SDS011;3997;48.416;8.512;2023-05-23T08:05:16;33.97;;;30.23;;
7903;SDS011;3997;48.416;8.512;2023-05-23T08:07:43;33.35;;;29.85;;
7903;SDS011;3997;48.416;8.512;2023-05-23T08:10:10;31.48;;;28.25;;
7903;SDS011;3997;48.416;8.512;2023-05-23T08:12:36;33.60;;;29.67;;
7903;SDS011;3997;48.416;8.512;2023-05-23T08:15:03;31.63;;;28.30;;
7903;SDS011;3997;48.416;8.512;2023-05-23T08:17:31;32.78;;;29.27;;
7903;SDS011;3997;48.416;8.512;2023-05-23T08:19:59;33.28;;;29.67;;
7903;SDS011;3997;48.416;8.512;2023-05-23T08:22:26;33.97;;;29.85;;
7903;SDS011;3997;48.416;8.512;2023-05-23T08:24:52;32.78;;;29.35;;
7903;SDS011;3997;48.416;8.512;2023-05-23T08:27:19;30.80;;;27.50;;
7903;SDS011;3997;48.416;8.512;2023-05-23T08:29:46;31.48;;;28.08;;
7903;SDS011;3997;48.416;8.512;2023-05-23T08:32:13;31.15;;;26.92;;
7903;SDS011;3997;48.416;8.512;2023-05-23T08:34:40;32.10;;;28.70;;
7903;SDS011;3997;48.416;8.512;2023-05-23T08:37:08;29.38;;;26.38;;
7903;SDS011;3997;48.416;8.512;2023-05-23T08:39:35;28.25;;;25.45;;
7903;SDS011;3997;48.416;8.512;2023-05-23T08:42:01;29.77;;;26.67;;
7903;SDS011;3997;48.416;8.512;2023-05-23T08:44:28;27.92;;;25.13;;
7903;SDS011;3997;48.416;8.512;2023-05-23T08:46:55;28.60;;;25.58;;
7903;SDS011;3997;48.416;8.512;2023-05-23T08:49:29;26.65;;;23.75;;
7903;SDS011;3997;48.416;8.512;2023-05-23T08:51:56;24.20;;;21.80;;
7903;SDS011;3997;48.416;8.512;2023-05-23T08:54:29;26.50;;;23.85;;
7903;SDS011;3997;48.416;8.512;2023-05-23T08:56:58;27.05;;;24.38;;
7903;SDS011;3997;48.416;8.512;2023-05-23T08:59:25;26.17;;;23.45;;
7903;SDS011;3997;48.416;8.512;2023-05-23T09:01:53;25.55;;;23.15;;
7903;SDS011;3997;48.416;8.512;2023-05-23T09:04:21;27.65;;;24.75;;
7903;SDS011;3997;48.416;8.512;2023-05-23T09:06:48;25.58;;;22.73;;
7903;SDS011;3997;48.416;8.512;2023-05-23T09:09:15;25.15;;;22.40;;
7903;SDS011;3997;48.416;8.512;2023-05-23T09:11:43;25.35;;;22.85;;
7903;SDS011;3997;48.416;8.512;2023-05-23T09:14:11;21.25;;;19.15;;
7903;SDS011;3997;48.416;8.512;2023-05-23T09:16:42;22.67;;;20.30;;
7903;SDS011;3997;48.416;8.512;2023-05-23T09:19:13;23.20;;;20.80;;
7903;SDS011;3997;48.416;8.512;2023-05-23T09:21:43;22.52;;;20.35;;
7903;SDS011;3997;48.416;8.512;2023-05-23T09:24:10;21.98;;;19.77;;
7903;SDS011;3997;48.416;8.512;2023-05-23T09:26:37;22.35;;;20.20;;
7903;SDS011;3997;48.416;8.512;2023-05-23T09:29:05;22.38;;;20.33;;
7903;SDS011;3997;48.416;8.512;2023-05-23T09:31:32;20.05;;;18.05;;
7903;SDS011;3997;48.416;8.512;2023-05-23T09:33:59;21.75;;;19.75;;
7903;SDS011;3997;48.416;8.512;2023-05-23T09:36:26;21.92;;;19.83;;
7903;SDS011;3997;48.416;8.512;2023-05-23T09:38:54;22.48;;;20.30;;
7903;SDS011;3997;48.416;8.512;2023-05-23T09:41:21;22.17;;;20.00;;
7903;SDS011;3997;48.416;8.512;2023-05-23T09:43:49;19.58;;;17.70;;
7903;SDS011;3997;48.416;8.512;2023-05-23T09:46:19;22.25;;;20.20;;
7903;SDS011;3997;48.416;8.512;2023-05-23T09:48:47;20.23;;;18.20;;
7903;SDS011;3997;48.416;8.512;2023-05-23T09:51:16;19.73;;;17.80;;
7903;SDS011;3997;48.416;8.512;2023-05-23T09:53:44;19.30;;;17.33;;
7903;SDS011;3997;48.416;8.512;2023-05-23T09:56:11;19.40;;;17.23;;
7903;SDS011;3997;48.416;8.512;2023-05-23T09:58:41;19.20;;;17.55;;
7903;SDS011;3997;48.416;8.512;2023-05-23T10:01:12;20.27;;;18.48;;
7903;SDS011;3997;48.416;8.512;2023-05-23T10:03:43;18.60;;;17.02;;
7903;SDS011;3997;48.416;8.512;2023-05-23T10:06:15;17.98;;;16.38;;
7903;SDS011;3997;48.416;8.512;2023-05-23T10:08:49;18.20;;;16.55;;
7903;SDS011;3997;48.416;8.512;2023-05-23T10:14:30;16.98;;;15.30;;
7903;SDS011;3997;48.416;8.512;2023-05-23T10:17:02;15.43;;;14.05;;
7903;SDS011;3997;48.416;8.512;2023-05-23T10:19:37;16.73;;;15.23;;
7903;SDS011;3997;48.416;8.512;2023-05-23T10:22:09;16.23;;;14.65;;
7903;SDS011;3997;48.416;8.512;2023-05-23T10:24:37;15.75;;;14.25;;
7903;SDS011;3997;48.416;8.512;2023-05-23T10:27:04;13.65;;;12.45;;
7903;SDS011;3997;48.416;8.512;2023-05-23T10:29:31;14.35;;;12.98;;
7903;SDS011;3997;48.416;8.512;2023-05-23T10:31:59;13.52;;;12.32;;
7903;SDS011;3997;48.416;8.512;2023-05-23T10:34:29;14.70;;;13.35;;
7903;SDS011;3997;48.416;8.512;2023-05-23T10:37:03;13.10;;;12.00;;
7903;SDS011;3997;48.416;8.512;2023-05-23T10:39:33;11.88;;;10.77;;
7903;SDS011;3997;48.416;8.512;2023-05-23T10:42:16;11.73;;;10.77;;
7903;SDS011;3997;48.416;8.512;2023-05-23T10:44:45;12.73;;;11.63;;
7903;SDS011;3997;48.416;8.512;2023-05-23T10:47:12;12.40;;;11.30;;
7903;SDS011;3997;48.416;8.512;2023-05-23T10:49:51;11.90;;;11.00;;
7903;SDS011;3997;48.416;8.512;2023-05-23T10:52:22;12.30;;;11.23;;
7903;SDS011;3997;48.416;8.512;2023-05-23T10:54:50;10.80;;;9.95;;
7903;SDS011;3997;48.416;8.512;2023-05-23T10:57:21;10.90;;;10.00;;
7903;SDS011;3997;48.416;8.512;2023-05-23T10:59:51;10.85;;;9.95;;
7903;SDS011;3997;48.416;8.512;2023-05-23T11:02:18;10.55;;;9.65;;
7903;SDS011;3997;48.416;8.512;2023-05-23T11:07:45;10.52;;;9.73;;
7903;SDS011;3997;48.416;8.512;2023-05-23T11:10:12;10.60;;;9.60;;
7903;SDS011;3997;48.416;8.512;2023-05-23T11:12:39;10.40;;;9.60;;
7903;SDS011;3997;48.416;8.512;2023-05-23T11:17:49;9.27;;;8.50;;
7903;SDS011;3997;48.416;8.512;2023-05-23T11:20:17;9.00;;;8.20;;
7903;SDS011;3997;48.416;8.512;2023-05-23T11:22:53;10.23;;;9.32;;
7903;SDS011;3997;48.416;8.512;2023-05-23T11:25:37;10.25;;;9.38;;
7903;SDS011;3997;48.416;8.512;2023-05-23T11:28:06;9.25;;;8.55;;
7903;SDS011;3997;48.416;8.512;2023-05-23T11:30:33;10.05;;;9.25;;
7903;SDS011;3997;48.416;8.512;2023-05-23T11:33:05;10.48;;;9.55;;
7903;SDS011;3997;48.416;8.512;2023-05-23T11:35:34;9.48;;;8.77;;
7903;SDS011;3997;48.416;8.512;2023-05-23T11:38:02;9.88;;;9.18;;
7903;SDS011;3997;48.416;8.512;2023-05-23T11:40:30;9.52;;;8.73;;
7903;SDS011;3997;48.416;8.512;2023-05-23T11:42:59;9.43;;;8.57;;
7903;SDS011;3997;48.416;8.512;2023-05-23T11:45:26;9.85;;;9.15;;
7903;SDS011;3997;48.416;8.512;2023-05-23T11:47:54;10.10;;;9.20;;
7903;SDS011;3997;48.416;8.512;2023-05-23T11:50:21;10.43;;;9.63;;
7903;SDS011;3997;48.416;8.512;2023-05-23T11:52:49;10.95;;;10.05;;
7903;SDS011;3997;48.416;8.512;2023-05-23T11:55:18;10.23;;;9.32;;
7903;SDS011;3997;48.416;8.512;2023-05-23T11:57:45;10.60;;;9.80;;
7903;SDS011;3997;48.416;8.512;2023-05-23T12:00:12;9.77;;;8.82;;
7903;SDS011;3997;48.416;8.512;2023-05-23T12:02:40;10.15;;;9.35;;
7903;SDS011;3997;48.416;8.512;2023-05-23T12:05:07;8.65;;;8.05;;
7903;SDS011;3997;48.416;8.512;2023-05-23T12:07:36;9.75;;;8.95;;
7903;SDS011;3997;48.416;8.512;2023-05-23T12:10:06;9.95;;;9.15;;
7903;SDS011;3997;48.416;8.512;2023-05-23T12:12:35;9.55;;;8.77;;
7903;SDS011;3997;48.416;8.512;2023-05-23T12:15:05;9.57;;;8.88;;
7903;SDS011;3997;48.416;8.512;2023-05-23T12:17:32;9.73;;;9.02;;
7903;SDS011;3997;48.416;8.512;2023-05-23T12:19:59;9.27;;;8.57;;
7903;SDS011;3997;48.416;8.512;2023-05-23T12:22:26;9.98;;;9.27;;
7903;SDS011;3997;48.416;8.512;2023-05-23T12:24:53;10.27;;;9.57;;
7903;SDS011;3997;48.416;8.512;2023-05-23T12:27:25;10.98;;;10.13;;
7903;SDS011;3997;48.416;8.512;2023-05-23T12:30:04;9.77;;;8.98;;
7903;SDS011;3997;48.416;8.512;2023-05-23T12:32:33;10.55;;;9.77;;
7903;SDS011;3997;48.416;8.512;2023-05-23T12:35:00;10.98;;;10.07;;
7903;SDS011;3997;48.416;8.512;2023-05-23T12:37:29;9.55;;;8.85;;
7903;SDS011;3997;48.416;8.512;2023-05-23T12:39:55;8.93;;;8.23;;
7903;SDS011;3997;48.416;8.512;2023-05-23T12:42:22;9.63;;;8.82;;
7903;SDS011;3997;48.416;8.512;2023-05-23T12:44:50;8.93;;;8.27;;
7903;SDS011;3997;48.416;8.512;2023-05-23T12:47:18;8.82;;;8.23;;
7903;SDS011;3997;48.416;8.512;2023-05-23T12:49:45;8.63;;;8.02;;
7903;SDS011;3997;48.416;8.512;2023-05-23T12:52:12;9.13;;;8.43;;
7903;SDS011;3997;48.416;8.512;2023-05-23T12:54:39;9.05;;;8.45;;
7903;SDS011;3997;48.416;8.512;2023-05-23T12:57:06;8.93;;;8.32;;
7903;SDS011;3997;48.416;8.512;2023-05-23T12:59:32;8.88;;;8.27;;
7903;SDS011;3997;48.416;8.512;2023-05-23T13:01:59;8.95;;;8.35;;
7903;SDS011;3997;48.416;8.512;2023-05-23T13:04:28;8.82;;;8.23;;
7903;SDS011;3997;48.416;8.512;2023-05-23T13:06:54;8.50;;;7.90;;
7903;SDS011;3997;48.416;8.512;2023-05-23T13:09:21;8.02;;;7.43;;
7903;SDS011;3997;48.416;8.512;2023-05-23T13:11:48;8.90;;;8.20;;
7903;SDS011;3997;48.416;8.512;2023-05-23T13:14:14;8.70;;;8.10;;
7903;SDS011;3997;48.416;8.512;2023-05-23T13:16:41;8.23;;;7.63;;
7903;SDS011;3997;48.416;8.512;2023-05-23T13:19:09;7.70;;;7.10;;
7903;SDS011;3997;48.416;8.512;2023-05-23T13:21:37;7.65;;;7.15;;
7903;SDS011;3997;48.416;8.512;2023-05-23T13:24:04;8.07;;;7.57;;
7903;SDS011;3997;48.416;8.512;2023-05-23T13:26:33;7.10;;;6.60;;
7903;SDS011;3997;48.416;8.512;2023-05-23T13:28:59;7.28;;;6.78;;
7903;SDS011;3997;48.416;8.512;2023-05-23T13:31:26;7.40;;;6.90;;
7903;SDS011;3997;48.416;8.512;2023-05-23T13:33:53;8.13;;;7.53;;
7903;SDS011;3997;48.416;8.512;2023-05-23T13:36:19;7.72;;;7.20;;
7903;SDS011;3997;48.416;8.512;2023-05-23T13:38:48;7.93;;;7.43;;
7903;SDS011;3997;48.416;8.512;2023-05-23T13:41:14;7.25;;;6.85;;
7903;SDS011;3997;48.416;8.512;2023-05-23T13:43:41;6.90;;;6.50;;
7903;SDS011;3997;48.416;8.512;2023-05-23T13:46:08;7.03;;;6.60;;
7903;SDS011;3997;48.416;8.512;2023-05-23T13:48:34;7.20;;;6.70;;
7903;SDS011;3997;48.416;8.512;2023-05-23T13:51:01;7.28;;;6.78;;
7903;SDS011;3997;48.416;8.512;2023-05-23T13:53:28;6.53;;;6.10;;
7903;SDS011;3997;48.416;8.512;2023-05-23T13:55:56;6.82;;;6.32;;
7903;SDS011;3997;48.416;8.512;2023-05-23T13:58:22;6.43;;;6.13;;
7903;SDS011;3997;48.416;8.512;2023-05-23T14:00:49;5.70;;;5.30;;
7903;SDS011;3997;48.416;8.512;2023-05-23T14:03:16;6.00;;;5.47;;
7903;SDS011;3997;48.416;8.512;2023-05-23T14:05:43;5.70;;;5.40;;
7903;SDS011;3997;48.416;8.512;2023-05-23T14:08:10;5.82;;;5.53;;
7903;SDS011;3997;48.416;8.512;2023-05-23T14:10:38;5.70;;;5.40;;
7903;SDS011;3997;48.416;8.512;2023-05-23T14:13:06;5.50;;;5.20;;
7903;SDS011;3997;48.416;8.512;2023-05-23T14:15:33;5.13;;;4.82;;
7903;SDS011;3997;48.416;8.512;2023-05-23T14:18:00;5.45;;;5.05;;
7903;SDS011;3997;48.416;8.512;2023-05-23T14:20:26;5.03;;;4.72;;
7903;SDS011;3997;48.416;8.512;2023-05-23T14:22:53;6.03;;;5.53;;
7903;SDS011;3997;48.416;8.512;2023-05-23T14:25:20;5.30;;;4.90;;
7903;SDS011;3997;48.416;8.512;2023-05-23T14:27:47;5.00;;;4.70;;
7903;SDS011;3997;48.416;8.512;2023-05-23T14:30:15;5.10;;;4.90;;
7903;SDS011;3997;48.416;8.512;2023-05-23T14:32:42;5.20;;;4.80;;
7903;SDS011;3997;48.416;8.512;2023-05-23T14:35:09;4.40;;;4.10;;
7903;SDS011;3997;48.416;8.512;2023-05-23T14:37:36;5.10;;;4.70;;
7903;SDS011;3997;48.416;8.512;2023-05-23T14:40:03;4.65;;;4.35;;
7903;SDS011;3997;48.416;8.512;2023-05-23T14:42:30;4.40;;;4.20;;
7903;SDS011;3997;48.416;8.512;2023-05-23T14:44:57;4.40;;;4.20;;
7903;SDS011;3997;48.416;8.512;2023-05-23T14:47:25;4.10;;;3.90;;
7903;SDS011;3997;48.416;8.512;2023-05-23T14:49:52;4.60;;;4.40;;
7903;SDS011;3997;48.416;8.512;2023-05-23T14:52:19;4.25;;;4.05;;
7903;SDS011;3997;48.416;8.512;2023-05-23T14:54:45;4.45;;;4.22;;
7903;SDS011;3997;48.416;8.512;2023-05-23T14:57:12;4.50;;;4.30;;
7903;SDS011;3997;48.416;8.512;2023-05-23T14:59:39;4.90;;;4.60;;
7903;SDS011;3997;48.416;8.512;2023-05-23T15:02:05;4.47;;;4.28;;
7903;SDS011;3997;48.416;8.512;2023-05-23T15:04:33;4.75;;;4.53;;
7903;SDS011;3997;48.416;8.512;2023-05-23T15:07:01;4.35;;;4.15;;
7903;SDS011;3997;48.416;8.512;2023-05-23T15:09:27;4.63;;;4.40;;